Purki — 9HA2386 — position and weather

sailwx.info

Track history (hours):
 
Tides and Currents Weather Stations Pressure Air Temp Water Temp Dewpoint Dewpoint Depression Visibility Wind Speed Wind Dir Waves Ship Positions

Purki

Last reported at 2017-Oct-18 14:48 UTC. Time now 2017-Oct-19 21:36 UTC.
Position N 37°07' E 012°38'.

Length 146 m; draft 8 m.

Type: Cargo ship. MMSI: 248495000.

Date/timePositionNaut miles runAvg speedWind from/ knotsBaromVisibWave heightAir tempDewpointWater temp
2017-Oct-18 14:48N 37°07' E 012°38'1313.0
2017-Oct-18 13:48N 37°03' E 012°54'612.9
2017-Oct-18 13:18N 37°01' E 013°01'412.5
2017-Oct-18 13:00N 37°00' E 013°06'612.8
2017-Oct-18 12:30N 36°59' E 013°14'1212.7
2017-Oct-18 11:35N 36°55' E 013°28'112.6
2017-Oct-18 11:30N 36°55' E 013°29'612.7
2017-Oct-18 11:00N 36°53' E 013°36'612.8
2017-Oct-18 10:30N 36°51' E 013°44'612.6
2017-Oct-18 10:00N 36°49' E 013°52'612.7
2017-Oct-18 09:30N 36°47' E 013°59'612.8
2017-Oct-18 09:00N 36°45' E 014°07'713.1
2017-Oct-18 08:30N 36°43' E 014°15'713.4
2017-Oct-18 08:00N 36°41' E 014°23'713.5
2017-Oct-18 07:30N 36°40' E 014°31'713.3
2017-Oct-18 07:00N 36°37' E 014°39'613.1
2017-Oct-18 06:30N 36°36' E 014°47'713.4
2017-Oct-18 06:00N 36°36' E 014°55'713.6
2017-Oct-18 05:29N 36°36' E 015°04'613.5
2017-Oct-18 05:00N 36°35' E 015°12'16513.4
2017-Oct-17 16:45N 36°29' E 018°37'313.4
2017-Oct-17 16:30N 36°29' E 018°41'2713.2
2017-Oct-17 14:28N 36°28' E 019°14'613.0
2017-Oct-17 13:59N 36°28' E 019°22'613.1
2017-Oct-17 13:30N 36°27' E 019°30'612.9
2017-Oct-17 13:00N 36°27' E 019°38'713.1
2017-Oct-17 12:30N 36°27' E 019°46'713.3
2017-Oct-17 12:00N 36°26' E 019°54'713.4
2017-Oct-17 11:30N 36°26' E 020°02'713.4
2017-Oct-17 11:00N 36°26' E 020°11'713.4
2017-Oct-17 10:30N 36°26' E 020°19'713.5
2017-Oct-17 10:00N 36°25' E 020°28'813.6
2017-Oct-17 09:25N 36°25' E 020°38'2413.2
2017-Oct-17 07:35N 36°24' E 021°08'213.1
2017-Oct-17 07:28N 36°24' E 021°10'15511.9
2017-Oct-16 18:25N 37°32' E 024°04'614.1
2017-Oct-16 17:59N 37°37' E 024°08'713.9
2017-Oct-16 17:26N 37°43' E 024°14'913.8
2017-Oct-16 16:46N 37°49' E 024°23'813.6
2017-Oct-16 16:09N 37°54' E 024°32'213.9
2017-Oct-16 16:00N 37°55' E 024°34'11813.8
2017-Oct-16 07:29N 39°40' E 025°42'613.4
2017-Oct-16 07:00N 39°46' E 025°45'813.6
2017-Oct-16 06:27N 39°52' E 025°50'1013.3
2017-Oct-16 05:41N 40°00' E 025°59'314.0
2017-Oct-16 05:29N 40°00' E 026°03'813.2
2017-Oct-16 04:51N 40°02' E 026°13'1213.7
2017-Oct-16 04:00N 40°11' E 026°23'2113.1
2017-Oct-16 02:22N 40°26' E 026°44'8413.6
2017-Oct-15 20:10N 40°52' E 028°29'213.5
2017-Oct-15 20:00N 40°52' E 028°32'10 0.7
2017-Oct-15 05:44N 40°56' E 028°45'4 3.3
2017-Oct-15 04:30N 40°56' E 028°51'5 8.8
2017-Oct-15 03:58N 40°56' E 028°57'511.7
2017-Oct-15 03:30N 40°52' E 029°01'612.9
2017-Oct-15 03:00N 40°50' E 029°09'2 3.0
2017-Oct-15 02:30N 40°50' E 029°11'1 2.1
2017-Oct-15 02:00N 40°49' E 029°12'612.7
2017-Oct-15 01:30N 40°45' E 029°19'611.8
2017-Oct-15 00:59N 40°45' E 029°27'4 0.6
2017-Oct-14 18:25N 40°46' E 029°32'3 7.2
2017-Oct-14 17:59N 40°44' E 029°28'611.8
2017-Oct-14 17:29N 40°43' E 029°20'611.8
2017-Oct-14 17:00N 40°43' E 029°13'713.6
2017-Oct-14 16:30N 40°41' E 029°04'713.4
2017-Oct-14 15:59N 40°39' E 028°56'14 7.2
2017-Oct-14 14:03N 40°25' E 028°60'111.7
2017-Oct-14 13:59N 40°25' E 029°01'3 4.2
2017-Oct-14 13:19N 40°25' E 029°05'0 0.0
2017-Oct-14 12:56N 40°25' E 029°05'0 0.0
2017-Oct-14 12:25N 40°25' E 029°05'0 0.0
2017-Oct-14 11:52N 40°25' E 029°05'0 0.0
2017-Oct-14 09:52N 40°25' E 029°05'0 0.0
2017-Oct-14 09:22N 40°25' E 029°05'0 0.0
2017-Oct-14 08:58N 40°25' E 029°05'0 0.0
2017-Oct-14 08:28N 40°25' E 029°05'0 0.0
2017-Oct-14 07:58N 40°25' E 029°05'0 0.0
2017-Oct-14 07:16N 40°25' E 029°05'0 0.0
2017-Oct-14 06:58N 40°25' E 029°05'0 0.0
2017-Oct-14 04:58N 40°25' E 029°05'0 0.0
2017-Oct-14 04:22N 40°25' E 029°05'0 0.0
2017-Oct-14 03:58N 40°25' E 029°05'0 0.0
2017-Oct-14 03:28N 40°25' E 029°05'0 0.0
2017-Oct-14 02:58N 40°25' E 029°05'0 0.0
2017-Oct-14 02:22N 40°25' E 029°05'0 0.0
2017-Oct-14 01:58N 40°25' E 029°05'0 0.0
2017-Oct-14 01:22N 40°25' E 029°05'2 2.9
2017-Oct-14 00:32N 40°26' E 029°02'1 6.1
2017-Oct-14 00:23N 40°26' E 029°01'0 0.5
2017-Oct-14 00:00N 40°26' E 029°01'0 0.7
2017-Oct-13 23:29N 40°26' E 029°01'0 0.7
2017-Oct-13 22:56N 40°26' E 029°02'0 0.2
2017-Oct-13 21:24N 40°26' E 029°02'227 5.8
2017-Oct-12 06:00N 37°51' E 025°27'713.2
2017-Oct-12 05:31N 37°45' E 025°25'713.0
2017-Oct-12 05:00N 37°38' E 025°23'612.4
2017-Oct-12 04:31N 37°32' E 025°20'612.1
2017-Oct-12 04:01N 37°29' E 025°13'613.0
2017-Oct-12 03:31N 37°26' E 025°07'612.7
2017-Oct-12 03:01N 37°22' E 025°00'612.4
2017-Oct-12 02:31N 37°18' E 024°54'48712.7
2017-Oct-10 12:01N 36°36' E 014°46'113.5
2017-Oct-10 11:56N 36°37' E 014°45'613.3
2017-Oct-10 11:30N 36°38' E 014°38'713.6
2017-Oct-10 11:01N 36°39' E 014°30'713.6
2017-Oct-10 10:31N 36°41' E 014°22'713.5
2017-Oct-10 10:00N 36°42' E 014°13'714.1
2017-Oct-10 09:31N 36°44' E 014°05'714.3
2017-Oct-10 09:00N 36°45' E 013°56'714.3
2017-Oct-10 08:30N 36°47' E 013°47'714.0
2017-Oct-10 08:00N 36°49' E 013°39'  
Track history (hours):
 
Tides and Currents Weather Stations Pressure Air Temp Water Temp Dewpoint Dewpoint Depression Visibility Wind Speed Wind Dir Waves Ship Positions

Purki

Last reported at 2017-Oct-18 14:48 UTC. Time now 2017-Oct-19 21:36 UTC.
Position N 37°07' E 012°38'.

Length 146 m; draft 8 m.

Type: Cargo ship. MMSI: 248495000.

Date/timePositionNaut miles runAvg speedWind from/ knotsBaromVisibWave heightAir tempDewpointWater temp
2017-Oct-18 14:48N 37°07' E 012°38'1313.0
2017-Oct-18 13:48N 37°03' E 012°54'612.9
2017-Oct-18 13:18N 37°01' E 013°01'412.5
2017-Oct-18 13:00N 37°00' E 013°06'612.8
2017-Oct-18 12:30N 36°59' E 013°14'1212.7
2017-Oct-18 11:35N 36°55' E 013°28'112.6
2017-Oct-18 11:30N 36°55' E 013°29'612.7
2017-Oct-18 11:00N 36°53' E 013°36'612.8
2017-Oct-18 10:30N 36°51' E 013°44'612.6
2017-Oct-18 10:00N 36°49' E 013°52'612.7
2017-Oct-18 09:30N 36°47' E 013°59'612.8
2017-Oct-18 09:00N 36°45' E 014°07'713.1
2017-Oct-18 08:30N 36°43' E 014°15'713.4
2017-Oct-18 08:00N 36°41' E 014°23'713.5
2017-Oct-18 07:30N 36°40' E 014°31'713.3
2017-Oct-18 07:00N 36°37' E 014°39'613.1
2017-Oct-18 06:30N 36°36' E 014°47'713.4
2017-Oct-18 06:00N 36°36' E 014°55'713.6
2017-Oct-18 05:29N 36°36' E 015°04'613.5
2017-Oct-18 05:00N 36°35' E 015°12'16513.4
2017-Oct-17 16:45N 36°29' E 018°37'313.4
2017-Oct-17 16:30N 36°29' E 018°41'2713.2
2017-Oct-17 14:28N 36°28' E 019°14'613.0
2017-Oct-17 13:59N 36°28' E 019°22'613.1
2017-Oct-17 13:30N 36°27' E 019°30'612.9
2017-Oct-17 13:00N 36°27' E 019°38'713.1
2017-Oct-17 12:30N 36°27' E 019°46'713.3
2017-Oct-17 12:00N 36°26' E 019°54'713.4
2017-Oct-17 11:30N 36°26' E 020°02'713.4
2017-Oct-17 11:00N 36°26' E 020°11'713.4
2017-Oct-17 10:30N 36°26' E 020°19'713.5
2017-Oct-17 10:00N 36°25' E 020°28'813.6
2017-Oct-17 09:25N 36°25' E 020°38'2413.2
2017-Oct-17 07:35N 36°24' E 021°08'213.1
2017-Oct-17 07:28N 36°24' E 021°10'15511.9
2017-Oct-16 18:25N 37°32' E 024°04'614.1
2017-Oct-16 17:59N 37°37' E 024°08'713.9
2017-Oct-16 17:26N 37°43' E 024°14'913.8
2017-Oct-16 16:46N 37°49' E 024°23'813.6
2017-Oct-16 16:09N 37°54' E 024°32'213.9
2017-Oct-16 16:00N 37°55' E 024°34'11813.8
2017-Oct-16 07:29N 39°40' E 025°42'613.4
2017-Oct-16 07:00N 39°46' E 025°45'813.6
2017-Oct-16 06:27N 39°52' E 025°50'1013.3
2017-Oct-16 05:41N 40°00' E 025°59'314.0
2017-Oct-16 05:29N 40°00' E 026°03'813.2
2017-Oct-16 04:51N 40°02' E 026°13'1213.7
2017-Oct-16 04:00N 40°11' E 026°23'2113.1
2017-Oct-16 02:22N 40°26' E 026°44'8413.6
2017-Oct-15 20:10N 40°52' E 028°29'213.5
2017-Oct-15 20:00N 40°52' E 028°32'10 0.7
2017-Oct-15 05:44N 40°56' E 028°45'4 3.3
2017-Oct-15 04:30N 40°56' E 028°51'5 8.8
2017-Oct-15 03:58N 40°56' E 028°57'511.7
2017-Oct-15 03:30N 40°52' E 029°01'612.9
2017-Oct-15 03:00N 40°50' E 029°09'2 3.0
2017-Oct-15 02:30N 40°50' E 029°11'1 2.1
2017-Oct-15 02:00N 40°49' E 029°12'612.7
2017-Oct-15 01:30N 40°45' E 029°19'611.8
2017-Oct-15 00:59N 40°45' E 029°27'4 0.6
2017-Oct-14 18:25N 40°46' E 029°32'3 7.2
2017-Oct-14 17:59N 40°44' E 029°28'611.8
2017-Oct-14 17:29N 40°43' E 029°20'611.8
2017-Oct-14 17:00N 40°43' E 029°13'713.6
2017-Oct-14 16:30N 40°41' E 029°04'713.4
2017-Oct-14 15:59N 40°39' E 028°56'14 7.2
2017-Oct-14 14:03N 40°25' E 028°60'111.7
2017-Oct-14 13:59N 40°25' E 029°01'3 4.2
2017-Oct-14 13:19N 40°25' E 029°05'0 0.0
2017-Oct-14 12:56N 40°25' E 029°05'0 0.0
2017-Oct-14 12:25N 40°25' E 029°05'0 0.0
2017-Oct-14 11:52N 40°25' E 029°05'0 0.0
2017-Oct-14 09:52N 40°25' E 029°05'0 0.0
2017-Oct-14 09:22N 40°25' E 029°05'0 0.0
2017-Oct-14 08:58N 40°25' E 029°05'0 0.0
2017-Oct-14 08:28N 40°25' E 029°05'0 0.0
2017-Oct-14 07:58N 40°25' E 029°05'0 0.0
2017-Oct-14 07:16N 40°25' E 029°05'0 0.0
2017-Oct-14 06:58N 40°25' E 029°05'0 0.0
2017-Oct-14 04:58N 40°25' E 029°05'0 0.0
2017-Oct-14 04:22N 40°25' E 029°05'0 0.0
2017-Oct-14 03:58N 40°25' E 029°05'0 0.0
2017-Oct-14 03:28N 40°25' E 029°05'0 0.0
2017-Oct-14 02:58N 40°25' E 029°05'0 0.0
2017-Oct-14 02:22N 40°25' E 029°05'0 0.0
2017-Oct-14 01:58N 40°25' E 029°05'0 0.0
2017-Oct-14 01:22N 40°25' E 029°05'2 2.9
2017-Oct-14 00:32N 40°26' E 029°02'1 6.1
2017-Oct-14 00:23N 40°26' E 029°01'0 0.5
2017-Oct-14 00:00N 40°26' E 029°01'0 0.7
2017-Oct-13 23:29N 40°26' E 029°01'0 0.7
2017-Oct-13 22:56N 40°26' E 029°02'0 0.2
2017-Oct-13 21:24N 40°26' E 029°02'227 5.8
2017-Oct-12 06:00N 37°51' E 025°27'713.2
2017-Oct-12 05:31N 37°45' E 025°25'713.0
2017-Oct-12 05:00N 37°38' E 025°23'612.4
2017-Oct-12 04:31N 37°32' E 025°20'612.1
2017-Oct-12 04:01N 37°29' E 025°13'613.0
2017-Oct-12 03:31N 37°26' E 025°07'612.7
2017-Oct-12 03:01N 37°22' E 025°00'612.4
2017-Oct-12 02:31N 37°18' E 024°54'48712.7
2017-Oct-10 12:01N 36°36' E 014°46'113.5
2017-Oct-10 11:56N 36°37' E 014°45'613.3
2017-Oct-10 11:30N 36°38' E 014°38'713.6
2017-Oct-10 11:01N 36°39' E 014°30'713.6
2017-Oct-10 10:31N 36°41' E 014°22'713.5
2017-Oct-10 10:00N 36°42' E 014°13'714.1
2017-Oct-10 09:31N 36°44' E 014°05'714.3
2017-Oct-10 09:00N 36°45' E 013°56'714.3
2017-Oct-10 08:30N 36°47' E 013°47'714.0
2017-Oct-10 08:00N 36°49' E 013°39'  

Dump ship's entire track history